WAT1950 KHOU-KLFT
Flight info
| Callsign | WAT1950 |
|---|---|
| Flight time | 0h 40m |
| Altitude | 23000 |
| Route | ELOCO6 LLA |
| Aircraft | B752/M-SDE2E3FGHIJ3J4J7RWXY/LB1 |
Departure
| Time | 2026-04-24 15:02 |
|---|---|
| Airport | William P. Hobby Airport (KHOU) |
Arrival
| Time | 2026-04-24 15:43 |
|---|---|
| Airport | Lafayette Regional Airport (KLFT) |
| Time | Latitude | Longitude | Altitude | Speed | Heading |
|---|---|---|---|---|---|
| 2026-04-24 14:46 | 29.63937 | -95.27980 | 53 ft | 0 kts | 0° |
| 2026-04-24 14:55 | 29.63938 | -95.27980 | 53 ft | 0 kts | 360° |
| 2026-04-24 14:55 | 29.63946 | -95.27984 | 53 ft | 2 kts | 321° |
| 2026-04-24 14:55 | 29.63948 | -95.28001 | 53 ft | 2 kts | 255° |
| 2026-04-24 14:55 | 29.63940 | -95.28029 | 53 ft | 5 kts | 251° |
| 2026-04-24 14:56 | 29.63927 | -95.28072 | 53 ft | 6 kts | 251° |
| 2026-04-24 14:56 | 29.63912 | -95.28121 | 53 ft | 5 kts | 250° |
| 2026-04-24 14:56 | 29.63902 | -95.28157 | 53 ft | 2 kts | 270° |
| 2026-04-24 14:56 | 29.63912 | -95.28183 | 53 ft | 6 kts | 306° |
| 2026-04-24 14:57 | 29.63979 | -95.28175 | 53 ft | 13 kts | 42° |
| 2026-04-24 14:57 | 29.64066 | -95.28079 | 52 ft | 22 kts | 44° |
| 2026-04-24 14:57 | 29.64186 | -95.27944 | 50 ft | 24 kts | 44° |
| 2026-04-24 14:57 | 29.64315 | -95.27823 | 50 ft | 23 kts | 36° |
| 2026-04-24 14:58 | 29.64445 | -95.27709 | 50 ft | 23 kts | 43° |
| 2026-04-24 14:58 | 29.64558 | -95.27584 | 50 ft | 22 kts | 44° |
| 2026-04-24 14:58 | 29.64670 | -95.27460 | 49 ft | 22 kts | 44° |
| 2026-04-24 14:58 | 29.64784 | -95.27333 | 46 ft | 22 kts | 44° |
| 2026-04-24 14:59 | 29.64895 | -95.27210 | 47 ft | 21 kts | 44° |
| 2026-04-24 14:59 | 29.65006 | -95.27089 | 46 ft | 21 kts | 43° |
| 2026-04-24 14:59 | 29.65114 | -95.26971 | 46 ft | 21 kts | 44° |
| 2026-04-24 14:59 | 29.65219 | -95.26854 | 46 ft | 20 kts | 44° |
| 2026-04-24 15:00 | 29.65295 | -95.26774 | 45 ft | 8 kts | 21° |
| 2026-04-24 15:00 | 29.65337 | -95.26795 | 46 ft | 0 kts | 312° |
| 2026-04-24 15:01 | 29.65341 | -95.26800 | 46 ft | 2 kts | 312° |
| 2026-04-24 15:01 | 29.65369 | -95.26836 | 46 ft | 8 kts | 312° |
| 2026-04-24 15:01 | 29.65392 | -95.26887 | 46 ft | 6 kts | 263° |
| 2026-04-24 15:02 | 29.65359 | -95.26937 | 46 ft | 18 kts | 223° |
| 2026-04-24 15:02 | 29.65036 | -95.27286 | 49 ft | 107 kts | 224° |
| 2026-04-24 15:02 | 29.64313 | -95.28077 | 167 ft | 169 kts | 222° |
| 2026-04-24 15:02 | 29.63426 | -95.29041 | 862 ft | 188 kts | 218° |
| 2026-04-24 15:03 | 29.62633 | -95.29507 | 1349 ft | 200 kts | 192° |
| 2026-04-24 15:03 | 29.60877 | -95.29245 | 2646 ft | 204 kts | 152° |
| 2026-04-24 15:03 | 29.59942 | -95.28009 | 3567 ft | 215 kts | 123° |
| 2026-04-24 15:03 | 29.59368 | -95.26459 | 4504 ft | 219 kts | 106° |
| 2026-04-24 15:04 | 29.59496 | -95.24764 | 5389 ft | 218 kts | 69° |
| 2026-04-24 15:04 | 29.60057 | -95.23197 | 6276 ft | 213 kts | 73° |
| 2026-04-24 15:04 | 29.60476 | -95.21510 | 6785 ft | 230 kts | 78° |
| 2026-04-24 15:04 | 29.60835 | -95.19657 | 7336 ft | 246 kts | 80° |
| 2026-04-24 15:05 | 29.61165 | -95.17680 | 7842 ft | 265 kts | 81° |
| 2026-04-24 15:05 | 29.61491 | -95.15524 | 8430 ft | 282 kts | 81° |
| 2026-04-24 15:05 | 29.61821 | -95.13216 | 8936 ft | 302 kts | 81° |
| 2026-04-24 15:05 | 29.62153 | -95.10810 | 9695 ft | 310 kts | 81° |
| 2026-04-24 15:06 | 29.62480 | -95.08398 | 10551 ft | 314 kts | 81° |
| 2026-04-24 15:06 | 29.62815 | -95.05904 | 11423 ft | 317 kts | 81° |
| 2026-04-24 15:06 | 29.63148 | -95.03404 | 12221 ft | 322 kts | 81° |
| 2026-04-24 15:06 | 29.63487 | -95.00848 | 13085 ft | 325 kts | 81° |
| 2026-04-24 15:07 | 29.63827 | -94.98281 | 13814 ft | 332 kts | 81° |
| 2026-04-24 15:07 | 29.64185 | -94.95570 | 14181 ft | 354 kts | 80° |
| 2026-04-24 15:07 | 29.64561 | -94.92715 | 14510 ft | 374 kts | 81° |
| 2026-04-24 15:07 | 29.64963 | -94.89664 | 14780 ft | 395 kts | 81° |
| 2026-04-24 15:08 | 29.65372 | -94.86540 | 15390 ft | 403 kts | 80° |
| 2026-04-24 15:08 | 29.65791 | -94.83340 | 16111 ft | 407 kts | 80° |
| 2026-04-24 15:08 | 29.66208 | -94.80145 | 16728 ft | 414 kts | 80° |
| 2026-04-24 15:08 | 29.66638 | -94.76844 | 17483 ft | 416 kts | 80° |
| 2026-04-24 15:09 | 29.67067 | -94.73550 | 18070 ft | 424 kts | 80° |
| 2026-04-24 15:09 | 29.67503 | -94.70187 | 18680 ft | 429 kts | 80° |
| 2026-04-24 15:09 | 29.67943 | -94.66790 | 19388 ft | 432 kts | 79° |
| 2026-04-24 15:09 | 29.68388 | -94.63358 | 19899 ft | 439 kts | 79° |
| 2026-04-24 15:10 | 29.68839 | -94.59866 | 20535 ft | 443 kts | 80° |
| 2026-04-24 15:10 | 29.69287 | -94.56384 | 21099 ft | 449 kts | 79° |
| 2026-04-24 15:10 | 29.69745 | -94.52821 | 21699 ft | 453 kts | 79° |
| 2026-04-24 15:10 | 29.70204 | -94.49240 | 22221 ft | 458 kts | 79° |
| 2026-04-24 15:11 | 29.70671 | -94.45592 | 22705 ft | 465 kts | 80° |
| 2026-04-24 15:11 | 29.71142 | -94.41898 | 23026 ft | 470 kts | 79° |
| 2026-04-24 15:11 | 29.71623 | -94.38115 | 23019 ft | 485 kts | 81° |
| 2026-04-24 15:11 | 29.71847 | -94.34229 | 23020 ft | 499 kts | 90° |
| 2026-04-24 15:12 | 29.71571 | -94.30183 | 23016 ft | 507 kts | 97° |
| 2026-04-24 15:12 | 29.70707 | -94.22150 | 23006 ft | 507 kts | 97° |
| 2026-04-24 15:12 | 29.70268 | -94.18157 | 23014 ft | 507 kts | 97° |
| 2026-04-24 15:13 | 29.69818 | -94.14113 | 23018 ft | 509 kts | 97° |
| 2026-04-24 15:13 | 29.69369 | -94.10084 | 23013 ft | 508 kts | 97° |
| 2026-04-24 15:13 | 29.68916 | -94.06057 | 23010 ft | 508 kts | 96° |
| 2026-04-24 15:13 | 29.68694 | -94.02050 | 23014 ft | 507 kts | 90° |
| 2026-04-24 15:14 | 29.68658 | -93.98023 | 23015 ft | 506 kts | 90° |
| 2026-04-24 15:14 | 29.68612 | -93.93941 | 23016 ft | 506 kts | 90° |
| 2026-04-24 15:14 | 29.68571 | -93.89928 | 23014 ft | 507 kts | 89° |
| 2026-04-24 15:14 | 29.68532 | -93.85892 | 23019 ft | 508 kts | 90° |
| 2026-04-24 15:15 | 29.68492 | -93.81856 | 23017 ft | 506 kts | 89° |
| 2026-04-24 15:15 | 29.68451 | -93.77796 | 23017 ft | 505 kts | 89° |
| 2026-04-24 15:15 | 29.68410 | -93.73754 | 23024 ft | 509 kts | 89° |
| 2026-04-24 15:15 | 29.68368 | -93.69683 | 23018 ft | 508 kts | 89° |
| 2026-04-24 15:16 | 29.68325 | -93.65667 | 23021 ft | 505 kts | 89° |
| 2026-04-24 15:16 | 29.68281 | -93.61646 | 23019 ft | 507 kts | 89° |
| 2026-04-24 15:16 | 29.68236 | -93.57585 | 23022 ft | 507 kts | 89° |
| 2026-04-24 15:16 | 29.68205 | -93.53538 | 23017 ft | 507 kts | 89° |
| 2026-04-24 15:17 | 29.68168 | -93.49525 | 23017 ft | 508 kts | 89° |
| 2026-04-24 15:17 | 29.68124 | -93.45464 | 23018 ft | 508 kts | 89° |
| 2026-04-24 15:17 | 29.68078 | -93.41428 | 23020 ft | 508 kts | 89° |
| 2026-04-24 15:17 | 29.68028 | -93.37357 | 23017 ft | 508 kts | 89° |
| 2026-04-24 15:18 | 29.67976 | -93.33294 | 23012 ft | 510 kts | 90° |
| 2026-04-24 15:18 | 29.67923 | -93.29263 | 23006 ft | 509 kts | 90° |
| 2026-04-24 15:18 | 29.67867 | -93.25202 | 23013 ft | 508 kts | 89° |
| 2026-04-24 15:18 | 29.67809 | -93.21104 | 23012 ft | 509 kts | 89° |
| 2026-04-24 15:19 | 29.67753 | -93.17077 | 23012 ft | 508 kts | 89° |
| 2026-04-24 15:19 | 29.67693 | -93.13021 | 23014 ft | 509 kts | 89° |
| 2026-04-24 15:19 | 29.67633 | -93.08984 | 23017 ft | 508 kts | 89° |
| 2026-04-24 15:19 | 29.67572 | -93.04950 | 23017 ft | 508 kts | 89° |
| 2026-04-24 15:20 | 29.67509 | -93.00851 | 23016 ft | 506 kts | 90° |
| 2026-04-24 15:20 | 29.67445 | -92.96825 | 23016 ft | 507 kts | 90° |
| 2026-04-24 15:20 | 29.67380 | -92.92802 | 23016 ft | 508 kts | 89° |
| 2026-04-24 15:20 | 29.67313 | -92.88739 | 22997 ft | 507 kts | 89° |
| 2026-04-24 15:21 | 29.67246 | -92.84654 | 22532 ft | 511 kts | 90° |
| 2026-04-24 15:21 | 29.67177 | -92.80637 | 22043 ft | 499 kts | 90° |
| 2026-04-24 15:21 | 29.67109 | -92.76736 | 21558 ft | 489 kts | 90° |
| 2026-04-24 15:21 | 29.67142 | -92.72823 | 21066 ft | 484 kts | 84° |
| 2026-04-24 15:22 | 29.67645 | -92.69094 | 20586 ft | 470 kts | 74° |
| 2026-04-24 15:22 | 29.68632 | -92.65591 | 20105 ft | 455 kts | 64° |
| 2026-04-24 15:22 | 29.70072 | -92.62405 | 19618 ft | 441 kts | 54° |
| 2026-04-24 15:23 | 29.74050 | -92.57363 | 18655 ft | 414 kts | 33° |
| 2026-04-24 15:23 | 29.78949 | -92.54425 | 17694 ft | 384 kts | 17° |
| 2026-04-24 15:23 | 29.81345 | -92.53140 | 17207 ft | 386 kts | 28° |
| 2026-04-24 15:24 | 29.87436 | -92.46817 | 15624 ft | 395 kts | 45° |
| 2026-04-24 15:25 | 29.90406 | -92.42879 | 14651 ft | 389 kts | 47° |
| 2026-04-24 15:25 | 29.94641 | -92.37769 | 13418 ft | 357 kts | 31° |
| 2026-04-24 15:26 | 30.00411 | -92.33575 | 11721 ft | 307 kts | 29° |
| 2026-04-24 15:27 | 30.05779 | -92.29770 | 9334 ft | 299 kts | 29° |
| 2026-04-24 15:27 | 30.11093 | -92.26131 | 6972 ft | 295 kts | 29° |
| 2026-04-24 15:28 | 30.18156 | -92.21563 | 4002 ft | 285 kts | 29° |
| 2026-04-24 15:29 | 30.21566 | -92.19460 | 3019 ft | 263 kts | 29° |
| 2026-04-24 15:30 | 30.26688 | -92.16344 | 3037 ft | 282 kts | 28° |
| 2026-04-24 15:31 | 30.33063 | -92.12450 | 3034 ft | 280 kts | 29° |
| 2026-04-24 15:32 | 30.40574 | -92.07861 | 3038 ft | 282 kts | 29° |
| 2026-04-24 15:33 | 30.45090 | -92.00848 | 3032 ft | 268 kts | 57° |
| 2026-04-24 15:33 | 30.48371 | -91.95729 | 3023 ft | 259 kts | 54° |
| 2026-04-24 15:34 | 30.50444 | -91.92638 | 3020 ft | 233 kts | 54° |
| 2026-04-24 15:35 | 30.51032 | -91.87688 | 3163 ft | 220 kts | 128° |
| 2026-04-24 15:35 | 30.49224 | -91.84844 | 3155 ft | 216 kts | 130° |
| 2026-04-24 15:35 | 30.48309 | -91.83469 | 3154 ft | 215 kts | 131° |
| 2026-04-24 15:36 | 30.47382 | -91.82101 | 3101 ft | 217 kts | 131° |
| 2026-04-24 15:36 | 30.45451 | -91.79414 | 2748 ft | 213 kts | 144° |
| 2026-04-24 15:36 | 30.44125 | -91.78810 | 2591 ft | 204 kts | 180° |
| 2026-04-24 15:37 | 30.42778 | -91.79249 | 2520 ft | 206 kts | 210° |
| 2026-04-24 15:37 | 30.41583 | -91.80185 | 2424 ft | 209 kts | 213° |
| 2026-04-24 15:37 | 30.40788 | -91.80833 | 2342 ft | 204 kts | 214° |
| 2026-04-24 15:37 | 30.39314 | -91.82094 | 2229 ft | 189 kts | 215° |
| 2026-04-24 15:38 | 30.38327 | -91.82969 | 2252 ft | 169 kts | 215° |
| 2026-04-24 15:38 | 30.37399 | -91.83801 | 2266 ft | 173 kts | 215° |
| 2026-04-24 15:38 | 30.36429 | -91.84679 | 2253 ft | 178 kts | 216° |
| 2026-04-24 15:38 | 30.35457 | -91.85569 | 2202 ft | 178 kts | 216° |
| 2026-04-24 15:39 | 30.34489 | -91.86460 | 2164 ft | 176 kts | 216° |
| 2026-04-24 15:39 | 30.33526 | -91.87348 | 2136 ft | 177 kts | 216° |
| 2026-04-24 15:39 | 30.32571 | -91.88230 | 2109 ft | 176 kts | 216° |
| 2026-04-24 15:39 | 30.31611 | -91.89118 | 2071 ft | 176 kts | 216° |
| 2026-04-24 15:40 | 30.30651 | -91.90006 | 2026 ft | 175 kts | 216° |
| 2026-04-24 15:40 | 30.29708 | -91.90880 | 2025 ft | 175 kts | 216° |
| 2026-04-24 15:40 | 30.28768 | -91.91751 | 2008 ft | 172 kts | 216° |
| 2026-04-24 15:40 | 30.27801 | -91.92645 | 1776 ft | 173 kts | 216° |
| 2026-04-24 15:41 | 30.26913 | -91.93470 | 1490 ft | 157 kts | 216° |
| 2026-04-24 15:41 | 30.26032 | -91.94123 | 1215 ft | 140 kts | 204° |
| 2026-04-24 15:41 | 30.25217 | -91.94594 | 988 ft | 126 kts | 204° |
| 2026-04-24 15:41 | 30.24437 | -91.95061 | 766 ft | 125 kts | 207° |
| 2026-04-24 15:42 | 30.23710 | -91.95611 | 647 ft | 127 kts | 212° |
| 2026-04-24 15:42 | 30.22985 | -91.96242 | 510 ft | 133 kts | 216° |
| 2026-04-24 15:42 | 30.22258 | -91.96906 | 302 ft | 132 kts | 216° |
| 2026-04-24 15:42 | 30.21534 | -91.97583 | 116 ft | 131 kts | 216° |
| 2026-04-24 15:43 | 30.20854 | -91.98207 | 29 ft | 115 kts | 216° |
| 2026-04-24 15:43 | 30.20380 | -91.98648 | 38 ft | 62 kts | 219° |
| 2026-04-24 15:43 | 30.20209 | -91.98825 | 40 ft | 14 kts | 236° |
| 2026-04-24 15:43 | 30.20135 | -91.98960 | 42 ft | 25 kts | 240° |
| 2026-04-24 15:44 | 30.20046 | -91.99135 | 43 ft | 25 kts | 233° |
| 2026-04-24 15:44 | 30.19917 | -91.99261 | 42 ft | 24 kts | 214° |
| 2026-04-24 15:44 | 30.19783 | -91.99370 | 42 ft | 21 kts | 225° |
| 2026-04-24 15:44 | 30.19803 | -91.99487 | 43 ft | 14 kts | 331° |
| 2026-04-24 15:45 | 30.19834 | -91.99505 | 43 ft | 0 kts | 332° |